Time;durP1;ratioP1;P1;durP2;ratioP2;P2;SDS_P1;SDS_P2;PMS_P1;PMS_P2;Temp;Humidity;BMP_temperature;BMP_pressure;BME280_temperature;BME280_humidity;BME280_pressure;Samples;Min_cycle;Max_cycle;Signal;HPM_P1;HPM_P2
2021/08/23 00:01:01;;;;;;;9.15;5.07;;;;;;;21.24;47.18;95200.81;5034228;28;20034;-78
2021/08/23 00:03:27;;;;;;;6.18;5.05;;;;;;;21.27;47.20;95200.25;5034976;28;20090;-78
2021/08/23 00:05:52;;;;;;;10.55;5.40;;;;;;;21.23;47.29;95202.66;5017068;28;20534;-78
2021/08/23 00:08:18;;;;;;;5.25;4.75;;;;;;;21.21;47.44;95209.31;5015394;28;20067;-78
2021/08/23 00:10:43;;;;;;;7.05;4.40;;;;;;;21.19;47.44;95200.91;5034470;28;20497;-78
2021/08/23 00:13:09;;;;;;;10.70;5.32;;;;;;;21.17;47.49;95211.78;5034963;28;20413;-78
2021/08/23 00:15:36;;;;;;;9.82;5.18;;;;;;;21.18;47.59;95213.34;5034084;28;20501;-78
2021/08/23 00:18:02;;;;;;;6.43;5.30;;;;;;;21.09;47.81;95220.34;5033957;28;20436;-78
2021/08/23 00:20:42;;;;;;;9.77;5.35;;;;;;;21.06;47.88;95220.13;5018771;28;20033;-78
2021/08/23 00:23:10;;;;;;;13.00;4.57;;;;;;;21.10;47.89;95207.91;5035540;28;20124;-78
2021/08/23 00:25:36;;;;;;;12.68;5.10;;;;;;;21.06;47.98;95213.00;5019889;28;20508;-78
2021/08/23 00:28:02;;;;;;;11.82;5.53;;;;;;;21.04;48.02;95207.22;5036338;28;20034;-79
2021/08/23 00:30:27;;;;;;;11.10;5.35;;;;;;;21.00;48.21;95218.66;5037021;28;20033;-78
2021/08/23 00:32:52;;;;;;;8.32;5.15;;;;;;;20.94;48.41;95218.72;5034289;28;20060;-78
2021/08/23 00:35:18;;;;;;;7.45;5.18;;;;;;;20.93;48.38;95219.78;5034429;28;20032;-78
2021/08/23 00:37:43;;;;;;;6.45;5.22;;;;;;;20.84;48.52;95213.59;5034455;28;20416;-79
2021/08/23 00:40:13;;;;;;;16.90;5.13;;;;;;;20.83;48.59;95216.53;5000634;28;20106;-78
2021/08/23 00:42:39;;;;;;;11.18;5.22;;;;;;;20.81;48.71;95214.13;5032473;28;20452;-78
2021/08/23 00:45:05;;;;;;;11.48;5.43;;;;;;;20.79;48.79;95232.13;5035391;28;20021;-78
2021/08/23 00:47:31;;;;;;;6.22;5.00;;;;;;;20.82;48.78;95217.56;5037681;28;20029;-78
2021/08/23 00:49:56;;;;;;;5.45;5.03;;;;;;;20.81;49.06;95218.63;5037393;28;20551;-78
2021/08/23 00:52:22;;;;;;;6.35;5.20;;;;;;;20.81;49.15;95219.41;5038137;28;20477;-78
2021/08/23 00:54:47;;;;;;;6.68;5.00;;;;;;;20.79;49.18;95211.00;5004477;28;20052;-78
2021/08/23 00:57:13;;;;;;;6.68;5.07;;;;;;;20.73;49.28;95217.44;5036412;28;20038;-78
2021/08/23 00:59:40;;;;;;;9.95;5.53;;;;;;;20.68;49.57;95214.88;5036890;28;20143;-78
2021/08/23 01:02:17;;;;;;;5.95;5.40;;;;;;;20.63;49.60;95217.56;5019190;28;20528;-78
2021/08/23 01:05:02;;;;;;;7.95;4.82;;;;;;;20.65;49.61;95215.41;5035879;28;20040;-78
2021/08/23 01:07:33;;;;;;;6.05;5.35;;;;;;;20.66;49.44;95211.69;5035651;28;20055;-78
2021/08/23 01:10:06;;;;;;;5.90;4.80;;;;;;;20.73;49.53;95222.72;5020466;28;20029;-78
2021/08/23 01:12:31;;;;;;;8.05;5.53;;;;;;;20.80;49.23;95212.56;5041962;22;20048;-78
2021/08/23 01:14:59;;;;;;;6.82;4.97;;;;;;;20.90;48.94;95219.56;5020116;28;20026;-78
2021/08/23 01:17:25;;;;;;;6.80;5.60;;;;;;;20.97;48.78;95225.28;5043711;28;20064;-78
2021/08/23 01:19:52;;;;;;;6.03;5.00;;;;;;;21.00;48.64;95221.28;5046491;28;20037;-78
2021/08/23 01:22:22;;;;;;;8.10;5.05;;;;;;;21.03;48.56;95218.84;5028979;28;20116;-78
2021/08/23 01:24:48;;;;;;;10.30;4.88;;;;;;;21.03;48.59;95220.72;5037312;28;20044;-78
2021/08/23 01:27:14;;;;;;;5.20;4.80;;;;;;;21.07;48.46;95211.91;5036348;28;20030;-79
2021/08/23 01:29:47;;;;;;;7.43;5.55;;;;;;;20.97;48.71;95218.13;5035873;28;20033;-78
2021/08/23 01:32:17;;;;;;;13.18;5.35;;;;;;;21.01;48.62;95217.56;5020854;28;20057;-78
2021/08/23 01:34:43;;;;;;;9.25;4.78;;;;;;;21.03;48.66;95218.06;5019544;28;20026;-78
2021/08/23 01:37:11;;;;;;;6.72;5.13;;;;;;;20.92;48.91;95212.13;5019462;28;20041;-78
2021/08/23 01:39:36;;;;;;;6.30;4.97;;;;;;;21.00;48.61;95210.72;5019626;28;20497;-79
2021/08/23 01:42:02;;;;;;;6.40;4.93;;;;;;;21.02;48.78;95213.84;5035509;28;20068;-78
2021/08/23 01:44:27;;;;;;;6.05;5.28;;;;;;;20.98;48.75;95203.84;5035973;28;20082;-78
2021/08/23 01:46:53;;;;;;;9.07;5.40;;;;;;;21.02;48.73;95208.56;5037605;28;20041;-78
2021/08/23 01:49:18;;;;;;;6.03;5.38;;;;;;;20.99;48.70;95204.66;5037141;28;20148;-78
2021/08/23 01:51:46;;;;;;;7.57;4.60;;;;;;;21.05;48.75;95213.28;5093378;22;20046;-78
2021/08/23 01:54:12;;;;;;;6.45;4.82;;;;;;;20.98;48.71;95203.84;5037981;28;20088;-78
2021/08/23 01:56:42;;;;;;;5.63;4.95;;;;;;;20.98;48.66;95206.47;5035528;28;20042;-78
2021/08/23 02:01:35;;;;;;;5.78;5.22;;;;;;;21.07;48.42;95206.63;5053457;22;20069;-78
2021/08/23 02:04:00;;;;;;;5.53;4.72;;;;;;;21.08;48.36;95213.47;5037199;28;20029;-78
2021/08/23 02:06:26;;;;;;;6.80;5.03;;;;;;;21.06;48.37;95209.56;5036766;28;20034;-78
2021/08/23 02:08:52;;;;;;;6.38;5.10;;;;;;;21.05;48.36;95214.06;5040003;28;20068;-78
2021/08/23 02:11:18;;;;;;;7.75;5.15;;;;;;;20.88;48.81;95204.00;5042234;28;20022;-78
2021/08/23 02:13:43;;;;;;;5.93;5.38;;;;;;;20.85;48.88;95209.88;5059699;22;20061;-77
2021/08/23 02:16:09;;;;;;;10.98;5.13;;;;;;;20.76;49.12;95208.94;5033563;28;20029;-78
2021/08/23 02:18:37;;;;;;;9.63;4.50;;;;;;;20.71;49.42;95208.22;5032444;28;20033;-78
2021/08/23 02:21:02;;;;;;;;;;;;;;;20.72;49.31;95199.22;5014965;28;20025;-78
2021/08/23 02:23:28;;;;;;;6.87;5.27;;;;;;;20.71;49.17;95208.22;5014490;28;19940;-78
2021/08/23 02:25:56;;;;;;;12.48;5.45;;;;;;;20.72;49.11;95200.00;5028233;28;20131;-78
2021/08/23 02:28:22;;;;;;;7.10;5.07;;;;;;;20.77;49.21;95197.28;5032281;28;20052;-78
2021/08/23 02:30:47;;;;;;;10.75;5.38;;;;;;;20.74;49.18;95192.56;5030829;28;20025;-78
2021/08/23 02:33:12;;;;;;;7.82;5.05;;;;;;;20.75;49.15;95191.50;5014716;28;20056;-78
2021/08/23 02:35:39;;;;;;;5.38;4.90;;;;;;;20.81;48.93;95187.69;5035041;22;20092;-77
2021/08/23 02:38:07;;;;;;;9.00;4.95;;;;;;;20.81;48.90;95190.34;5037863;22;20098;-78
2021/08/23 02:40:34;;;;;;;9.60;5.47;;;;;;;20.85;48.98;95195.88;5032137;28;20025;-78
2021/08/23 02:42:59;;;;;;;;;;;;;;;20.87;48.85;95197.16;5031598;28;20262;-78
2021/08/23 02:45:24;;;;;;;9.70;4.78;;;;;;;20.83;48.86;95195.38;5032136;28;19972;-78
2021/08/23 02:47:50;;;;;;;5.70;5.07;;;;;;;20.83;48.93;95190.09;5032097;28;20128;-78
2021/08/23 02:50:15;;;;;;;6.72;5.28;;;;;;;20.85;48.98;95194.00;5030536;28;20033;-78
2021/08/23 02:52:41;;;;;;;;;;;;;;;20.87;49.02;95189.22;5014495;28;20022;-78
2021/08/23 02:55:07;;;;;;;10.52;4.82;;;;;;;20.86;48.73;95194.78;5031670;28;19917;-78
2021/08/23 02:57:32;;;;;;;6.10;5.03;;;;;;;20.85;49.03;95199.28;5030334;28;20036;-78
2021/08/23 02:59:58;;;;;;;8.80;5.60;;;;;;;20.87;48.89;95191.06;5029261;28;20603;-78
2021/08/23 03:02:27;;;;;;;15.38;6.25;;;;;;;20.95;48.71;95199.13;5029830;28;20033;-78
2021/08/23 03:04:52;;;;;;;;;;;;;;;20.97;48.93;95202.25;5032163;28;20555;-78
2021/08/23 03:07:17;;;;;;;;;;;;;;;20.92;49.24;95197.06;5031004;28;19917;-78
2021/08/23 03:09:43;;;;;;;21.17;7.35;;;;;;;20.84;49.67;95203.00;5025269;28;19924;-78
2021/08/23 03:12:08;;;;;;;14.82;7.90;;;;;;;20.78;49.80;95208.63;5032150;28;20067;-78
2021/08/23 03:14:34;;;;;;;19.20;7.30;;;;;;;20.73;50.08;95208.72;5047483;28;20025;-78
2021/08/23 03:16:59;;;;;;;17.08;7.95;;;;;;;20.70;50.06;95207.44;5030380;28;20040;-78
2021/08/23 03:19:25;;;;;;;;;;;;;;;20.64;50.30;95217.28;5031072;28;20509;-77
2021/08/23 03:21:50;;;;;;;11.50;6.30;;;;;;;20.57;50.60;95213.41;5014126;28;19943;-78
2021/08/23 03:24:15;;;;;;;23.38;7.50;;;;;;;20.52;50.47;95210.84;5049016;28;20767;-77
2021/08/23 03:26:41;;;;;;;;;;;;;;;20.47;50.74;95216.97;5036242;28;20038;-77
2021/08/23 03:29:08;;;;;;;;;;;;;;;20.38;50.85;95216.81;5037719;28;19928;-77
2021/08/23 03:31:33;;;;;;;27.10;7.85;;;;;;;20.29;51.18;95218.47;5038328;22;19932;-77
2021/08/23 03:34:00;;;;;;;14.80;7.30;;;;;;;20.24;51.54;95210.63;5037124;28;20041;-77
2021/08/23 03:36:25;;;;;;;17.67;7.18;;;;;;;20.21;51.60;95213.84;5031396;28;20052;-76
2021/08/23 03:38:51;;;;;;;18.02;6.82;;;;;;;20.18;51.46;95211.78;5031127;28;20022;-77
2021/08/23 03:41:16;;;;;;;;;;;;;;;20.16;51.25;95211.25;5031208;28;20064;-77
2021/08/23 03:43:42;;;;;;;;;;;;;;;20.10;51.58;95220.28;5031504;28;19917;-77
2021/08/23 03:46:07;;;;;;;;;;;;;;;20.01;51.48;95212.22;5013511;28;19917;-78
2021/08/23 03:48:32;;;;;;;10.32;5.80;;;;;;;19.97;51.56;95216.47;5031394;28;19913;-78
2021/08/23 03:50:58;;;;;;;14.03;6.97;;;;;;;20.07;50.88;95212.94;5028550;28;20782;-78
2021/08/23 03:53:23;;;;;;;10.80;6.18;;;;;;;20.18;50.37;95222.34;5031219;28;20083;-78
2021/08/23 03:55:48;;;;;;;;;;;;;;;20.20;50.55;95229.97;5030562;28;20563;-77
2021/08/23 03:58:14;;;;;;;9.90;6.27;;;;;;;20.15;50.59;95227.38;5036927;22;19974;-78
2021/08/23 04:00:39;;;;;;;10.43;6.25;;;;;;;20.21;50.45;95215.69;5030774;28;20300;-77
2021/08/23 04:03:05;;;;;;;12.68;6.32;;;;;;;20.32;49.77;95228.47;5031119;28;20038;-78
2021/08/23 04:05:30;;;;;;;9.32;6.47;;;;;;;20.50;49.50;95237.56;5013156;28;20104;-78
2021/08/23 04:07:56;;;;;;;9.68;6.25;;;;;;;20.66;48.98;95223.09;5029480;28;20523;-78
2021/08/23 04:10:22;;;;;;;8.38;6.05;;;;;;;20.94;48.38;95228.50;5028117;28;20030;-78
2021/08/23 04:12:47;;;;;;;9.00;6.60;;;;;;;21.22;47.43;95232.06;5030991;28;20029;-78
2021/08/23 04:15:12;;;;;;;;;;;;;;;21.67;46.61;95229.78;5031602;28;20045;-78
2021/08/23 04:17:40;;;;;;;;;;;;;;;22.05;45.60;95225.91;5027847;28;19917;-78
2021/08/23 04:20:06;;;;;;;;;;;;;;;22.69;44.02;95226.75;5029711;28;19913;-78
2021/08/23 04:22:32;;;;;;;;;;;;;;;23.47;42.07;95211.47;5034351;28;19993;-78
2021/08/23 04:24:57;;;;;;;9.48;5.50;;;;;;;24.21;40.39;95217.00;5037758;28;19939;-78
2021/08/23 04:27:33;;;;;;;13.37;6.57;;;;;;;25.07;38.60;95218.31;5066028;22;20848;31
2021/08/23 04:29:58;;;;;;;9.67;6.23;;;;;;;26.07;36.46;95220.66;4992539;28;20445;-78
2021/08/23 04:32:24;;;;;;;14.13;6.22;;;;;;;27.08;34.49;95224.19;4993005;28;20468;-78
2021/08/23 04:34:49;;;;;;;19.33;6.30;;;;;;;27.97;32.73;95226.47;4994282;28;20413;-78
2021/08/23 04:37:15;;;;;;;15.57;6.05;;;;;;;28.88;31.43;95221.72;4995625;28;20026;-78
2021/08/23 04:39:40;;;;;;;14.05;5.65;;;;;;;29.69;29.96;95217.88;4994402;28;20039;-78
2021/08/23 04:42:06;;;;;;;19.20;5.60;;;;;;;30.52;28.61;95221.47;4976591;28;20432;-78
2021/08/23 04:44:31;;;;;;;17.77;5.50;;;;;;;30.99;27.95;95224.06;5071122;22;20428;-78
2021/08/23 04:46:57;;;;;;;10.90;5.00;;;;;;;31.94;26.26;95224.41;5053853;28;20416;-78
2021/08/23 04:49:22;;;;;;;9.30;4.72;;;;;;;32.72;25.00;95216.81;5055131;28;20033;-78
2021/08/23 04:51:48;;;;;;;14.60;5.00;;;;;;;33.54;24.23;95220.56;5051241;23;20044;-78
2021/08/23 04:54:13;;;;;;;9.57;4.80;;;;;;;34.15;23.18;95213.06;5076207;28;20450;-78
2021/08/23 04:56:39;;;;;;;6.07;4.43;;;;;;;34.89;22.35;95212.88;5077411;28;20063;-79
2021/08/23 04:59:04;;;;;;;7.57;4.45;;;;;;;35.62;21.50;95213.56;5060587;28;20028;-79
2021/08/23 05:01:29;;;;;;;17.65;4.35;;;;;;;36.21;20.64;95216.00;5077049;28;20476;-79
2021/08/23 05:03:55;;;;;;;12.00;4.30;;;;;;;36.67;20.50;95216.00;5060307;28;20385;-79
2021/08/23 05:06:20;;;;;;;11.25;5.00;;;;;;;37.48;19.60;95209.56;5042128;28;20914;-78
2021/08/23 05:08:49;;;;;;;12.68;4.68;;;;;;;38.24;18.66;95213.41;5043008;28;20033;-79
2021/08/23 05:11:15;;;;;;;9.18;3.95;;;;;;;38.70;17.80;95213.00;5077920;28;20480;-78
2021/08/23 05:13:40;;;;;;;10.35;4.63;;;;;;;39.32;17.38;95205.75;5071883;22;20521;-78
2021/08/23 05:16:06;;;;;;;14.15;5.07;;;;;;;39.65;17.29;95212.34;5038908;28;20091;-78
2021/08/23 05:18:31;;;;;;;13.75;4.40;;;;;;;40.08;16.65;95209.78;5038501;28;20493;-78
2021/08/23 05:21:02;;;;;;;27.58;4.80;;;;;;;40.70;16.32;95207.63;5038091;28;20030;-78
2021/08/23 05:23:28;;;;;;;21.20;4.63;;;;;;;41.10;15.46;95211.16;5039719;28;20524;-80
2021/08/23 05:25:53;;;;;;;15.88;4.15;;;;;;;41.59;15.31;95206.66;5040561;28;20041;-80
2021/08/23 05:28:19;;;;;;;10.55;4.40;;;;;;;41.99;14.66;95200.38;5041010;28;20048;-81
2021/08/23 05:30:44;;;;;;;17.10;4.68;;;;;;;42.33;14.50;95210.91;5023029;28;20030;-81
2021/08/23 05:33:10;;;;;;;15.13;4.82;;;;;;;42.80;14.23;95214.78;5019351;28;20033;-81
2021/08/23 05:35:35;;;;;;;10.07;4.45;;;;;;;43.17;13.69;95214.59;5046204;28;20037;-81
2021/08/23 05:38:01;;;;;;;14.53;4.80;;;;;;;43.72;13.77;95213.44;5048324;28;20398;-81
2021/08/23 05:40:29;;;;;;;13.88;5.03;;;;;;;44.18;12.99;95212.00;5047325;28;20386;-81
2021/08/23 05:42:55;;;;;;;17.63;4.57;;;;;;;44.57;12.90;95212.72;5041487;28;20045;-81
2021/08/23 05:45:20;;;;;;;11.18;4.28;;;;;;;44.79;12.57;95224.50;5041839;28;20169;-81
2021/08/23 05:47:46;;;;;;;8.90;3.92;;;;;;;45.06;12.21;95215.72;5038859;28;20030;-81
2021/08/23 05:50:11;;;;;;;11.18;4.53;;;;;;;44.82;12.33;95223.63;5038063;28;20528;-79
2021/08/23 05:52:37;;;;;;;12.02;4.82;;;;;;;45.42;12.19;95220.75;5039644;28;20036;-81
2021/08/23 05:55:03;;;;;;;14.02;4.82;;;;;;;45.65;12.08;95216.75;5038899;28;20037;-81
2021/08/23 05:57:28;;;;;;;13.75;4.30;;;;;;;45.87;11.98;95227.69;5037471;28;20465;-81
2021/08/23 05:59:54;;;;;;;7.35;4.60;;;;;;;46.21;11.41;95224.00;5034905;28;20037;-81
2021/08/23 06:02:20;;;;;;;12.43;4.28;;;;;;;46.41;11.52;95214.63;5037372;28;20061;-81
2021/08/23 06:04:51;;;;;;;8.38;4.22;;;;;;;46.42;11.30;95221.66;5038350;28;20525;-82
2021/08/23 06:07:17;;;;;;;20.90;4.60;;;;;;;46.20;11.16;95227.97;5049295;23;20037;-79
2021/08/23 06:09:42;;;;;;;19.38;4.75;;;;;;;45.46;11.68;95226.09;5055933;28;20037;-78
2021/08/23 06:12:08;;;;;;;17.30;4.63;;;;;;;44.60;13.00;95220.84;5052877;28;20033;-78
2021/08/23 06:14:34;;;;;;;14.65;4.90;;;;;;;43.75;13.77;95218.03;5054216;28;20033;-78
2021/08/23 06:16:59;;;;;;;19.90;4.80;;;;;;;42.93;14.11;95216.81;5036990;28;20037;-78
2021/08/23 06:19:25;;;;;;;14.95;5.00;;;;;;;42.18;15.01;95222.16;5055939;28;20085;-78
2021/08/23 06:21:50;;;;;;;13.13;4.60;;;;;;;41.65;14.98;95209.66;5055369;28;20048;-78
2021/08/23 06:24:16;;;;;;;25.80;5.55;;;;;;;41.06;15.64;95216.69;5055516;28;20056;-78
2021/08/23 06:26:41;;;;;;;14.65;4.60;;;;;;;40.20;16.51;95213.91;5055346;28;20033;-79
2021/08/23 06:29:08;;;;;;;17.40;5.50;;;;;;;39.71;16.65;95210.72;5054564;28;20506;-78
2021/08/23 06:31:34;;;;;;;13.63;4.80;;;;;;;39.07;17.40;95216.13;5052593;28;20037;-78
2021/08/23 06:33:59;;;;;;;14.95;5.10;;;;;;;38.68;17.93;95212.63;5052803;28;20045;-77
2021/08/23 06:36:24;;;;;;;27.98;5.53;;;;;;;38.39;18.41;95212.09;5049802;28;20082;-78
2021/08/23 06:38:53;;;;;;;15.20;4.75;;;;;;;37.89;18.50;95210.91;5048960;28;20492;-78
2021/08/23 06:41:20;;;;;;;14.52;5.55;;;;;;;37.44;19.01;95200.69;5065182;22;20053;-80
2021/08/23 06:43:45;;;;;;;14.63;5.38;;;;;;;36.64;20.06;95209.41;5054360;28;20033;-79
2021/08/23 06:46:36;;;;;;;20.80;5.75;;;;;;;36.23;20.44;95213.66;5056597;28;20056;-79
2021/08/23 06:49:01;;;;;;;14.27;5.30;;;;;;;35.96;21.14;95218.66;5056830;28;20518;-79
2021/08/23 06:51:27;;;;;;;16.27;4.50;;;;;;;35.89;21.36;95216.75;5037089;28;20037;-79
2021/08/23 06:53:52;;;;;;;28.67;6.25;;;;;;;35.92;21.32;95223.31;5056481;28;20040;-80
2021/08/23 06:56:21;;;;;;;14.32;5.45;;;;;;;35.83;20.66;95218.25;5057137;28;20033;-79
2021/08/23 06:58:47;;;;;;;24.85;5.30;;;;;;;35.41;21.25;95219.69;5022932;28;20036;-79
2021/08/23 07:01:12;;;;;;;13.38;4.95;;;;;;;35.24;21.56;95219.59;5062268;22;20047;-79
2021/08/23 07:03:38;;;;;;;11.15;5.20;;;;;;;34.98;21.79;95216.00;5056468;28;20102;-79
2021/08/23 07:06:03;;;;;;;9.35;5.05;;;;;;;34.91;21.79;95213.25;5056086;28;20041;-79
2021/08/23 07:08:29;;;;;;;9.02;5.07;;;;;;;34.85;22.24;95198.53;5054245;28;20116;-79
2021/08/23 07:10:56;;;;;;;14.25;5.00;;;;;;;34.87;22.21;95201.66;5055929;28;20041;-79
2021/08/23 07:13:22;;;;;;;19.75;5.57;;;;;;;34.84;22.53;95197.78;5054965;28;20123;-79
2021/08/23 07:15:50;;;;;;;23.65;4.95;;;;;;;34.88;22.29;95192.41;5055886;28;20052;-79
2021/08/23 07:18:15;;;;;;;11.88;4.95;;;;;;;34.65;22.23;95189.91;5054874;28;20029;-79
2021/08/23 07:20:41;;;;;;;12.38;5.00;;;;;;;34.39;22.30;95193.63;5056604;28;20036;-79
2021/08/23 07:23:06;;;;;;;16.58;5.65;;;;;;;34.06;22.57;95193.72;5056307;28;20029;-79
2021/08/23 07:25:32;;;;;;;15.98;5.47;;;;;;;33.93;22.99;95193.22;5054831;28;20037;-79
2021/08/23 07:28:00;;;;;;;15.73;5.03;;;;;;;33.91;22.89;95185.50;5054744;28;20060;-79
2021/08/23 07:30:25;;;;;;;25.33;5.22;;;;;;;33.88;23.05;95182.78;5054260;28;20417;-79
2021/08/23 07:32:51;;;;;;;11.20;4.95;;;;;;;33.88;23.25;95180.09;5055905;28;20570;-79
2021/08/23 07:35:18;;;;;;;17.17;5.57;;;;;;;33.33;23.58;95174.47;5056950;28;20489;-79
2021/08/23 07:37:45;;;;;;;14.45;5.43;;;;;;;32.82;24.60;95175.78;5040303;28;20432;-78
2021/08/23 07:40:11;;;;;;;13.02;5.22;;;;;;;32.65;25.00;95181.69;5056584;28;20044;-79
2021/08/23 07:42:36;;;;;;;20.00;5.35;;;;;;;32.61;24.70;95175.47;5054852;28;20037;-79
2021/08/23 07:45:02;;;;;;;15.02;5.10;;;;;;;32.63;25.25;95177.81;5055404;28;20037;-79
2021/08/23 07:47:27;;;;;;;14.30;4.85;;;;;;;32.69;25.33;95176.34;5037727;28;20033;-79
2021/08/23 07:49:52;;;;;;;12.43;5.63;;;;;;;32.76;24.77;95182.59;5055499;28;20040;-79
2021/08/23 07:52:19;;;;;;;11.30;5.43;;;;;;;32.78;24.74;95174.94;5056360;28;20447;-79
2021/08/23 07:54:45;;;;;;;11.85;5.28;;;;;;;32.75;24.36;95170.28;5108329;22;20086;-78
2021/08/23 07:57:13;;;;;;;11.35;5.25;;;;;;;32.80;24.13;95172.69;5033560;28;20038;-79
2021/08/23 07:59:38;;;;;;;8.93;5.22;;;;;;;32.83;24.25;95161.16;5034809;28;20061;-79
2021/08/23 08:02:04;;;;;;;10.43;4.80;;;;;;;32.80;24.38;95167.28;5035345;28;20099;-79
2021/08/23 08:04:29;;;;;;;16.08;5.15;;;;;;;32.79;24.44;95163.03;5035185;28;20017;-79
2021/08/23 08:06:55;;;;;;;10.25;5.30;;;;;;;32.79;24.51;95165.72;5035115;28;20029;-78
2021/08/23 08:09:21;;;;;;;9.10;5.00;;;;;;;32.72;24.61;95165.63;5017914;28;20033;-79
2021/08/23 08:11:46;;;;;;;12.48;5.38;;;;;;;32.73;24.62;95161.03;5001175;28;20060;-79
2021/08/23 08:14:11;;;;;;;9.07;4.90;;;;;;;32.70;24.31;95159.03;5029398;28;20087;-79
2021/08/23 08:16:37;;;;;;;15.50;5.05;;;;;;;32.39;24.43;95158.25;5034431;28;20500;-78
2021/08/23 08:19:02;;;;;;;12.50;5.38;;;;;;;32.21;24.91;95157.16;5034247;28;20026;-79
2021/08/23 08:21:34;;;;;;;10.95;4.95;;;;;;;32.25;25.05;95158.00;5033325;28;20095;-79
2021/08/23 08:24:00;;;;;;;6.25;4.75;;;;;;;32.26;24.60;95159.56;5049957;28;20026;-78
2021/08/23 08:26:25;;;;;;;9.65;5.03;;;;;;;32.22;24.58;95154.13;5032110;28;20390;-78
2021/08/23 08:28:56;;;;;;;16.92;4.63;;;;;;;32.24;24.64;95153.78;5031730;28;20029;-78
2021/08/23 08:31:22;;;;;;;17.80;4.80;;;;;;;32.29;25.20;95156.16;5034683;28;20029;-78
2021/08/23 08:33:47;;;;;;;8.02;4.53;;;;;;;32.25;25.25;95153.41;5034432;28;20477;-78
2021/08/23 08:36:14;;;;;;;18.35;5.32;;;;;;;32.28;24.46;95145.78;5032912;28;20091;-77
2021/08/23 08:38:41;;;;;;;8.70;4.63;;;;;;;32.37;24.91;95148.97;5095466;22;20112;-79
2021/08/23 08:41:12;;;;;;;;;;;;;;;32.34;24.47;95149.69;5050821;28;20037;-79
2021/08/23 08:43:37;;;;;;;15.05;5.47;;;;;;;32.11;24.97;95147.81;5054853;28;19920;-79
2021/08/23 08:46:12;;;;;;;8.50;4.93;;;;;;;32.15;24.71;95147.84;5054601;28;20417;-78
2021/08/23 08:48:37;;;;;;;12.32;5.50;;;;;;;32.09;24.66;95143.94;5054333;28;20137;-78
2021/08/23 08:51:03;;;;;;;8.57;5.00;;;;;;;32.16;25.13;95144.81;5056708;28;20484;-79
2021/08/23 08:53:28;;;;;;;10.25;5.13;;;;;;;31.90;25.67;95147.47;5060571;22;20524;-79
2021/08/23 08:55:54;;;;;;;8.18;5.57;;;;;;;31.03;26.21;95147.00;5055346;28;20051;-78
2021/08/23 08:58:23;;;;;;;;;;;;;;;30.88;26.62;95142.47;5051922;28;20071;-78
2021/08/23 09:00:48;;;;;;;;;;;;;;;30.91;26.77;95141.78;5054808;28;19939;-79
2021/08/23 09:03:26;;;;;;;8.30;4.90;;;;;;;31.01;26.38;95141.22;5055378;28;19916;-78
2021/08/23 09:05:59;;;;;;;6.35;5.07;;;;;;;31.19;26.74;95136.22;5053877;28;20108;-78
2021/08/23 09:08:28;;;;;;;;;;;;;;;31.29;25.88;95137.56;5057148;28;20439;-78
2021/08/23 09:11:18;;;;;;;8.63;5.00;;;;;;;31.28;25.81;95130.63;5057468;28;19997;-79
2021/08/23 09:14:02;;;;;;;6.45;5.28;;;;;;;31.37;26.31;95125.78;5057272;22;20037;-79
2021/08/23 09:16:27;;;;;;;;;;;;;;;31.47;26.47;95117.16;5056257;28;20037;-78
2021/08/23 09:18:53;;;;;;;16.65;5.00;;;;;;;31.46;25.94;95118.28;5073012;22;20364;-78
2021/08/23 09:21:26;;;;;;;17.90;5.35;;;;;;;31.51;26.31;95126.03;5078068;22;20028;-79
2021/08/23 09:23:53;;;;;;;6.78;5.13;;;;;;;31.21;26.48;95117.03;5056961;28;20063;-79
2021/08/23 09:26:18;;;;;;;11.88;4.93;;;;;;;31.08;26.55;95119.09;5049867;22;20025;-78
2021/08/23 09:29:02;;;;;;;;;;;;;;;31.00;26.70;95110.13;5035980;28;20091;-79
2021/08/23 09:31:29;;;;;;;14.75;5.10;;;;;;;30.99;26.70;95105.88;5035416;28;19919;-79
2021/08/23 09:33:57;;;;;;;20.40;4.78;;;;;;;31.02;26.71;95102.47;5037087;28;20065;-79
2021/08/23 09:36:29;;;;;;;14.07;5.28;;;;;;;31.04;26.40;95108.28;5032902;28;20135;-79
2021/08/23 09:38:57;;;;;;;;;;;;;;;31.09;26.24;95109.91;5037389;28;20084;-78
2021/08/23 09:41:26;;;;;;;7.07;4.80;;;;;;;30.92;26.23;95111.13;5038534;28;20614;-78
2021/08/23 09:44:02;;;;;;;6.53;4.70;;;;;;;30.89;26.28;95106.44;5037909;28;20064;-78
2021/08/23 09:46:27;;;;;;;11.75;4.75;;;;;;;31.00;25.96;95098.59;5018363;28;20421;-78
2021/08/23 09:48:54;;;;;;;11.73;4.93;;;;;;;30.74;26.64;95089.28;5103208;22;20041;-79
2021/08/23 09:51:36;;;;;;;11.20;4.57;;;;;;;30.42;26.91;95098.53;5036545;28;20038;-77
2021/08/23 09:54:15;;;;;;;8.05;4.03;;;;;;;30.42;27.21;95082.44;5018660;28;20057;-79
2021/08/23 09:56:45;;;;;;;10.82;4.40;;;;;;;30.46;26.82;95081.41;5022445;23;20052;-78
2021/08/23 09:59:18;;;;;;;5.93;4.57;;;;;;;30.58;26.95;95074.34;5035224;28;20056;-78
2021/08/23 10:01:45;;;;;;;7.63;4.07;;;;;;;30.68;26.84;95074.59;5058546;22;20536;-78
2021/08/23 10:04:11;;;;;;;9.55;4.45;;;;;;;30.71;27.09;95068.50;5056016;28;20424;-78
2021/08/23 10:06:40;;;;;;;6.60;5.63;;;;;;;30.72;25.09;95066.59;5055919;28;20507;-79
2021/08/23 10:09:06;;;;;;;6.60;4.03;;;;;;;30.72;25.27;95061.22;5022019;28;20041;-78
2021/08/23 10:11:32;;;;;;;10.15;4.13;;;;;;;30.61;25.87;95062.91;5040289;28;20029;-78
2021/08/23 10:13:58;;;;;;;6.68;4.10;;;;;;;30.36;26.82;95059.72;5062186;28;20036;-77
2021/08/23 10:16:23;;;;;;;6.32;4.47;;;;;;;29.94;27.33;95059.53;5054151;22;20045;-77
2021/08/23 10:18:49;;;;;;;7.10;4.53;;;;;;;29.70;27.60;95058.63;5028802;28;20307;-77
2021/08/23 10:21:14;;;;;;;5.25;4.05;;;;;;;29.34;28.21;95050.81;5042806;28;20040;-77
2021/08/23 10:23:40;;;;;;;6.80;4.45;;;;;;;29.27;27.69;95052.19;5001442;28;20022;-78
2021/08/23 10:26:06;;;;;;;6.55;4.35;;;;;;;29.32;26.95;95053.84;5035571;28;20037;-78
2021/08/23 10:28:36;;;;;;;9.38;4.00;;;;;;;29.21;26.60;95045.53;5039012;28;20068;-78
2021/08/23 10:31:07;;;;;;;6.15;4.05;;;;;;;29.31;26.42;95051.50;5033921;28;20036;-78
2021/08/23 10:33:37;;;;;;;5.90;4.00;;;;;;;29.19;26.39;95050.47;5034591;28;20050;-78
2021/08/23 10:36:03;;;;;;;4.60;4.20;;;;;;;29.26;26.43;95044.50;5034050;28;20041;-78
2021/08/23 10:38:28;;;;;;;10.05;4.70;;;;;;;29.42;25.76;95036.47;5034133;28;20084;-78
2021/08/23 10:41:07;;;;;;;8.60;4.20;;;;;;;29.27;25.84;95036.09;5032406;28;20029;-78
2021/08/23 10:43:45;;;;;;;9.63;3.63;;;;;;;29.11;26.24;95032.63;5032539;28;20604;-78
2021/08/23 10:46:39;;;;;;;4.40;4.00;;;;;;;29.24;26.47;95026.09;5030947;28;20033;-78
2021/08/23 10:49:14;;;;;;;9.45;3.80;;;;;;;29.53;25.82;95019.56;5033263;28;20037;-78
2021/08/23 10:51:57;;;;;;;14.90;4.53;;;;;;;29.68;24.88;95011.84;5028643;28;20037;-78
2021/08/23 10:54:39;;;;;;;4.43;4.10;;;;;;;29.39;24.67;95010.38;5031922;28;20018;-78
2021/08/23 10:57:07;;;;;;;15.88;4.03;;;;;;;29.36;24.85;95011.84;5030695;28;20037;-78
2021/08/23 10:59:41;;;;;;;3.55;3.35;;;;;;;29.25;24.87;95006.22;5037323;22;20037;-78
2021/08/23 11:02:08;;;;;;;16.13;3.85;;;;;;;29.25;24.47;95000.84;5032622;28;20152;-78
2021/08/23 11:04:38;;;;;;;11.63;3.80;;;;;;;29.39;24.96;95007.69;5037544;22;20048;-78
2021/08/23 11:07:07;;;;;;;6.10;3.90;;;;;;;29.35;24.23;95004.94;5032729;28;20091;-79
2021/08/23 11:09:39;;;;;;;8.50;4.00;;;;;;;29.36;24.49;94992.31;5032517;28;20466;-78
2021/08/23 11:12:09;;;;;;;11.13;3.25;;;;;;;29.54;23.69;94988.94;5013081;28;20052;-78
2021/08/23 11:14:43;;;;;;;6.88;3.70;;;;;;;29.57;23.79;95000.88;5032531;28;20116;-78
2021/08/23 11:17:08;;;;;;;4.60;4.15;;;;;;;29.15;24.36;94987.22;5014614;28;20091;-78
2021/08/23 11:22:03;;;;;;;6.50;4.50;;;;;;;29.15;24.41;94974.63;5133653;22;20042;-78
2021/08/23 11:24:30;;;;;;;5.13;4.03;;;;;;;29.11;24.39;94979.09;5030861;28;20033;-78
2021/08/23 11:27:00;;;;;;;7.28;4.38;;;;;;;29.03;24.23;94995.34;5038378;22;20121;-78
2021/08/23 11:29:25;;;;;;;15.75;3.92;;;;;;;29.01;24.29;94979.63;5032817;28;20469;-78
2021/08/23 11:31:55;;;;;;;7.55;4.32;;;;;;;29.10;23.67;94966.81;5031382;28;20037;-78
2021/08/23 11:34:24;;;;;;;7.15;4.00;;;;;;;29.21;24.03;94970.53;5014967;28;20385;-78
2021/08/23 11:36:49;;;;;;;4.38;3.85;;;;;;;29.32;24.03;94972.72;5032714;28;20034;-78
2021/08/23 11:39:15;;;;;;;9.63;4.15;;;;;;;29.32;23.40;94970.03;4999103;28;20064;-78